Saipan, Northern Mariana Islands
Current Conditions -  °F | °C
As of 6:54 PM on Sunday 21 Dec 2014 (Local Time) from PGSN Reporting Station
Scattered Clouds Scattered Clouds  
Wind Chill: 82°   Ceiling: Unl
Heat Index: 88°   Visibility: 10mi
Dew Point: 74°   Wind: 17mph
Humidity: 76%   Direction: 80°E
Pressure: 29.88"   Gusts: 24mph
Location:  15.13°N, 145.7°E
Report Text: PGSN 210854Z 08015G21KT 10SM SCT022 SCT034 28/23 A2988 RMK AO2 SLP139 6//// T02780233 53010 PNO $
Loading
Personal Weather Stations






























Interactive Weather Map New forecast layout! Learn more

10-Day Weather Forecast

Advertisements
Track Severe Weather on mobile